Time;durP1;ratioP1;P1;durP2;ratioP2;P2;SDS_P1;SDS_P2;PMS_P1;PMS_P2;Temp;Humidity;BMP_temperature;BMP_pressure;BME280_temperature;BME280_humidity;BME280_pressure;Samples;Min_cycle;Max_cycle;Signal;HPM_P1;HPM_P2
2022/04/08 00:00:25;;;;;;;;;;;;;;;7.36;53.93;96218.03;2602544;28;19920;-82
2022/04/08 00:01:52;;;;;;;;;;;;;;;7.34;53.70;96212.94;2604229;28;19932;-87
2022/04/08 00:03:07;;;;;;;;;;;;;;;7.35;53.20;96219.81;2603166;28;19932;-83
2022/04/08 00:04:22;;;;;;;;;;;;;;;7.42;51.63;96222.94;2601659;28;20067;-82
2022/04/08 00:05:38;;;;;;;;;;;;;;;7.38;52.43;96237.03;2601533;28;19944;-83
2022/04/08 00:06:53;;;;;;;;;;;;;;;7.39;51.68;96248.28;2603441;28;19932;-86
2022/04/08 00:08:09;;;;;;;;;;;;;;;7.28;52.43;96241.03;2603482;28;19924;-84
2022/04/08 00:09:24;;;;;;;;;;;;;;;7.25;52.04;96243.75;2602048;28;19975;-83
2022/04/08 00:10:39;;;;;;;;;;;;;;;7.23;52.56;96245.59;2602643;28;19925;-83
2022/04/08 00:11:55;;;;;;;;;;;;;;;7.23;51.80;96251.66;2603659;28;19925;-84
2022/04/08 00:13:11;;;;;;;;;;;;;;;7.16;51.93;96250.28;2601686;28;19925;-83
2022/04/08 00:14:26;;;;;;;;;;;;;;;7.13;52.00;96253.03;2601491;28;19928;-82
2022/04/08 00:15:41;;;;;;;;;;;;;;;7.08;52.42;96250.66;2601682;28;20269;-84
2022/04/08 00:16:57;;;;;;;;;;;;;;;7.13;51.44;96247.81;2602556;28;20497;-83
2022/04/08 00:18:12;;;;;;;;;;;;;;;7.09;51.30;96264.53;2602830;28;20527;-83
2022/04/08 00:19:28;;;;;;;;;;;;;;;7.11;51.26;96249.66;2602075;28;19924;-82
2022/04/08 00:20:43;;;;;;;;;;;;;;;7.05;51.12;96261.22;2602884;28;19925;-86
2022/04/08 00:22:00;;;;;;;;;;;;;;;6.99;50.94;96258.94;2601664;28;19924;-83
2022/04/08 00:23:16;;;;;;;;;;;;;;;7.00;51.32;96248.44;2603407;28;19929;-85
2022/04/08 00:24:32;;;;;;;;;;;;;;;7.06;51.03;96257.69;2602112;28;19977;-82
2022/04/08 00:25:47;;;;;;;;;;;;;;;7.09;50.64;96256.72;2602916;28;19928;-83
2022/04/08 00:27:02;;;;;;;;;;;;;;;7.07;50.35;96252.44;2601553;28;19932;-83
2022/04/08 00:28:18;;;;;;;;;;;;;;;7.09;50.54;96259.31;2601708;28;20559;-82
2022/04/08 00:29:33;;;;;;;;;;;;;;;6.98;50.95;96259.81;2603289;28;20069;-82
2022/04/08 00:30:49;;;;;;;;;;;;;;;6.95;51.06;96265.19;2603841;28;19925;-83
2022/04/08 00:32:04;;;;;;;;;;;;;;;6.97;50.35;96269.41;2603601;28;20087;-82
2022/04/08 00:33:20;;;;;;;;;;;;;;;6.93;51.19;96271.31;2604296;28;19932;-84
2022/04/08 00:34:35;;;;;;;;;;;;;;;6.96;50.85;96256.47;2602252;28;20303;-83
2022/04/08 00:35:51;;;;;;;;;;;;;;;6.92;50.54;96248.81;2603943;28;20386;-84
2022/04/08 00:37:06;;;;;;;;;;;;;;;6.86;50.88;96256.94;2602460;28;19924;-85
2022/04/08 00:38:22;;;;;;;;;;;;;;;6.79;50.52;96258.13;2602436;28;20273;-83
2022/04/08 00:39:37;;;;;;;;;;;;;;;6.82;50.40;96259.75;2601324;28;19925;-83
2022/04/08 00:40:52;;;;;;;;;;;;;;;6.75;50.75;96261.78;2604011;28;19943;-83
2022/04/08 00:42:08;;;;;;;;;;;;;;;6.73;51.20;96264.47;2602548;28;19932;-84
2022/04/08 00:43:37;;;;;;;;;;;;;;;6.78;49.70;96269.44;2604580;28;19925;-83
2022/04/08 00:44:52;;;;;;;;;;;;;;;6.79;49.47;96260.72;2604301;28;19924;-82
2022/04/08 00:46:11;;;;;;;;;;;;;;;6.77;49.88;96278.16;2603243;28;20344;-82
2022/04/08 00:47:26;;;;;;;;;;;;;;;6.80;49.90;96283.22;2603690;28;19925;-83
2022/04/08 00:48:42;;;;;;;;;;;;;;;6.75;50.85;96290.41;2613160;28;20394;-82
2022/04/08 00:49:58;;;;;;;;;;;;;;;6.73;50.30;96285.25;2608149;28;20795;-82
2022/04/08 00:51:14;;;;;;;;;;;;;;;6.83;49.03;96283.06;2602794;28;19936;-83
2022/04/08 00:52:33;;;;;;;;;;;;;;;6.80;49.30;96283.22;2601298;28;19929;-84
2022/04/08 00:53:48;;;;;;;;;;;;;;;6.87;48.62;96273.34;2603500;28;19927;-83
2022/04/08 00:55:04;;;;;;;;;;;;;;;6.90;48.39;96281.84;2604186;28;19932;-84
2022/04/08 00:56:21;;;;;;;;;;;;;;;6.89;48.85;96279.31;2604078;28;19924;-83
2022/04/08 00:57:37;;;;;;;;;;;;;;;6.79;49.16;96286.72;2602300;28;19957;-84
2022/04/08 00:58:54;;;;;;;;;;;;;;;6.74;49.91;96283.53;2602297;28;19937;-83
2022/04/08 01:00:10;;;;;;;;;;;;;;;6.63;49.34;96284.84;2603498;28;19925;-82
2022/04/08 01:01:25;;;;;;;;;;;;;;;6.64;49.50;96296.94;2601965;28;20398;-84
2022/04/08 01:02:41;;;;;;;;;;;;;;;6.64;49.08;96281.34;2603634;28;20292;-83
2022/04/08 01:03:57;;;;;;;;;;;;;;;6.62;50.07;96283.19;2601459;28;20283;-85
2022/04/08 01:05:13;;;;;;;;;;;;;;;6.60;49.16;96279.81;2601334;28;19925;-84
2022/04/08 01:06:28;;;;;;;;;;;;;;;6.61;49.27;96302.28;2604136;28;20435;-84
2022/04/08 01:07:44;;;;;;;;;;;;;;;6.64;48.68;96294.34;2602911;28;19928;-83
2022/04/08 01:09:00;;;;;;;;;;;;;;;6.62;48.69;96309.19;2601360;28;20407;-82
2022/04/08 01:10:15;;;;;;;;;;;;;;;6.63;49.18;96310.00;2602591;28;19920;-82
2022/04/08 01:11:31;;;;;;;;;;;;;;;6.60;49.67;96305.81;2603611;28;19925;-86
2022/04/08 01:12:47;;;;;;;;;;;;;;;6.59;48.83;96306.72;2603059;28;19931;-84
2022/04/08 01:14:07;;;;;;;;;;;;;;;6.58;49.51;96307.66;2602206;28;19978;-83
2022/04/08 01:15:23;;;;;;;;;;;;;;;6.55;49.46;96310.34;2603602;28;19942;-83
2022/04/08 01:16:38;;;;;;;;;;;;;;;6.51;49.57;96308.81;2601785;28;20099;-82
2022/04/08 01:17:54;;;;;;;;;;;;;;;6.57;49.24;96312.91;2601291;28;19928;-86
2022/04/08 01:19:09;;;;;;;;;;;;;;;6.58;49.15;96318.03;2602373;28;19924;-85
2022/04/08 01:20:24;;;;;;;;;;;;;;;6.52;50.34;96314.88;2602406;28;19972;-84
2022/04/08 01:21:40;;;;;;;;;;;;;;;6.48;50.01;96319.38;2602095;28;19994;-84
2022/04/08 01:22:55;;;;;;;;;;;;;;;6.44;49.93;96323.84;2603065;28;19932;-83
2022/04/08 01:24:13;;;;;;;;;;;;;;;6.35;50.16;96325.13;2601450;28;19987;-82
2022/04/08 01:25:28;;;;;;;;;;;;;;;6.33;50.76;96333.91;2603713;28;19939;-82
2022/04/08 01:26:44;;;;;;;;;;;;;;;6.44;49.01;96328.22;2603601;28;20006;-83
2022/04/08 01:27:59;;;;;;;;;;;;;;;6.60;49.51;96326.59;2603275;28;19925;-84
2022/04/08 01:29:15;;;;;;;;;;;;;;;6.58;49.58;96314.59;2602615;28;19925;-84
2022/04/08 01:30:30;;;;;;;;;;;;;;;6.53;49.18;96326.97;2603290;28;20011;-83
2022/04/08 01:31:46;;;;;;;;;;;;;;;6.52;49.62;96320.91;2600801;28;19968;-83
2022/04/08 01:33:02;;;;;;;;;;;;;;;6.49;49.67;96324.47;2602998;28;20222;-82
2022/04/08 01:34:17;;;;;;;;;;;;;;;6.46;49.71;96334.19;2601830;28;20392;-83
2022/04/08 01:35:32;;;;;;;;;;;;;;;6.46;49.99;96321.19;2602292;28;19929;-84
2022/04/08 01:36:48;;;;;;;;;;;;;;;6.55;49.32;96331.16;2602830;28;20423;-83
2022/04/08 01:38:03;;;;;;;;;;;;;;;6.54;49.49;96331.25;2602092;28;19932;-82
2022/04/08 01:39:19;;;;;;;;;;;;;;;6.52;49.50;96333.06;2602270;28;20418;-82
2022/04/08 01:40:34;;;;;;;;;;;;;;;6.48;49.61;96328.00;2603816;28;19925;-83
2022/04/08 01:41:50;;;;;;;;;;;;;;;6.48;49.31;96333.19;2603341;28;19925;-82
2022/04/08 01:43:05;;;;;;;;;;;;;;;6.49;49.47;96347.06;2606218;28;20011;-83
2022/04/08 01:44:21;;;;;;;;;;;;;;;6.58;49.09;96336.25;2604796;28;20259;-84
2022/04/08 01:45:36;;;;;;;;;;;;;;;6.55;49.86;96336.34;2603569;28;20417;-85
2022/04/08 01:46:51;;;;;;;;;;;;;;;6.53;49.70;96332.16;2602011;28;20288;-85
2022/04/08 01:48:08;;;;;;;;;;;;;;;6.50;50.04;96330.53;2600686;28;19924;-86
2022/04/08 01:49:23;;;;;;;;;;;;;;;6.56;49.70;96339.81;2601183;28;19925;-85
2022/04/08 01:50:39;;;;;;;;;;;;;;;6.48;49.67;96348.78;2603115;28;20338;-83
2022/04/08 01:51:54;;;;;;;;;;;;;;;6.53;49.50;96346.00;2601090;28;19932;-84
2022/04/08 01:53:10;;;;;;;;;;;;;;;6.54;50.04;96344.25;2602883;28;20036;-85
2022/04/08 01:54:25;;;;;;;;;;;;;;;6.53;49.37;96366.78;2602853;28;19932;-83
2022/04/08 01:55:40;;;;;;;;;;;;;;;6.53;49.81;96361.59;2602676;28;19970;-82
2022/04/08 01:56:56;;;;;;;;;;;;;;;6.47;49.86;96356.69;2602689;28;19921;-83
2022/04/08 01:58:11;;;;;;;;;;;;;;;6.47;49.86;96348.88;2600311;28;19975;-84
2022/04/08 01:59:27;;;;;;;;;;;;;;;6.46;49.85;96362.78;2601399;28;19929;-84
2022/04/08 02:00:42;;;;;;;;;;;;;;;6.47;50.08;96349.72;2601045;28;20287;-83
2022/04/08 02:02:01;;;;;;;;;;;;;;;6.51;49.58;96358.22;2601264;28;19928;-84
2022/04/08 02:03:20;;;;;;;;;;;;;;;6.46;49.78;96349.78;2603693;28;20286;-84
2022/04/08 02:04:35;;;;;;;;;;;;;;;6.45;49.90;96356.75;2601072;28;19971;-86
2022/04/08 02:05:51;;;;;;;;;;;;;;;6.47;50.14;96343.69;2600576;28;19971;-82
2022/04/08 02:07:06;;;;;;;;;;;;;;;6.51;49.07;96363.41;2601308;28;19925;-83
2022/04/08 02:08:22;;;;;;;;;;;;;;;6.57;48.69;96349.31;2600242;28;19928;-82
2022/04/08 02:09:39;;;;;;;;;;;;;;;6.52;49.64;96352.09;2600452;28;20248;-83
2022/04/08 02:10:54;;;;;;;;;;;;;;;6.38;50.10;96370.06;2602451;28;20350;-83
2022/04/08 02:12:09;;;;;;;;;;;;;;;6.32;50.75;96369.44;2601693;28;19932;-83
2022/04/08 02:13:25;;;;;;;;;;;;;;;6.36;50.07;96350.19;2600936;28;19936;-82
2022/04/08 02:14:40;;;;;;;;;;;;;;;6.36;50.62;96360.59;2600563;28;20447;-83
2022/04/08 02:15:56;;;;;;;;;;;;;;;6.36;50.65;96362.38;2602494;28;19929;-82
2022/04/08 02:17:11;;;;;;;;;;;;;;;6.26;50.45;96368.88;2600833;28;19992;-82
2022/04/08 02:18:27;;;;;;;;;;;;;;;6.35;49.69;96361.50;2601926;28;19952;-82
2022/04/08 02:19:42;;;;;;;;;;;;;;;6.34;49.87;96356.38;2603126;28;19925;-83
2022/04/08 02:20:57;;;;;;;;;;;;;;;6.35;49.93;96361.50;2602274;28;19925;-83
2022/04/08 02:22:13;;;;;;;;;;;;;;;6.30;49.74;96373.88;2601874;28;20375;-82
2022/04/08 02:23:28;;;;;;;;;;;;;;;6.32;49.46;96359.06;2602323;28;19925;-83
2022/04/08 02:24:44;;;;;;;;;;;;;;;6.32;50.47;96369.44;2602812;28;19936;-83
2022/04/08 02:25:59;;;;;;;;;;;;;;;6.37;49.79;96361.44;2600828;28;19921;-84
2022/04/08 02:27:14;;;;;;;;;;;;;;;6.38;49.75;96357.94;2602767;28;20536;-83
2022/04/08 02:28:31;;;;;;;;;;;;;;;6.36;50.36;96367.56;2602150;28;20021;-83
2022/04/08 02:29:47;;;;;;;;;;;;;;;6.42;49.12;96369.03;2600345;28;19921;-83
2022/04/08 02:31:03;;;;;;;;;;;;;;;6.40;49.80;96379.50;2603652;28;19935;-83
2022/04/08 02:32:19;;;;;;;;;;;;;;;6.34;49.60;96388.41;2602203;28;20007;-82
2022/04/08 02:33:34;;;;;;;;;;;;;;;6.32;50.00;96394.59;2601751;28;19939;-83
2022/04/08 02:34:51;;;;;;;;;;;;;;;6.33;49.44;96378.94;2599734;28;19979;-83
2022/04/08 02:36:07;;;;;;;;;;;;;;;6.31;49.81;96401.56;2601046;28;19921;-82
2022/04/08 02:37:23;;;;;;;;;;;;;;;6.31;50.23;96387.69;2601698;28;19925;-84
2022/04/08 02:38:38;;;;;;;;;;;;;;;6.34;49.55;96406.59;2600221;28;20363;-83
2022/04/08 02:39:53;;;;;;;;;;;;;;;6.36;49.49;96407.38;2600801;28;19936;-83
2022/04/08 02:41:09;;;;;;;;;;;;;;;6.38;48.85;96403.88;2602147;28;20415;-83
2022/04/08 02:42:24;;;;;;;;;;;;;;;6.35;49.80;96397.03;2602788;28;19948;-83
2022/04/08 02:43:40;;;;;;;;;;;;;;;6.38;49.61;96411.66;2601829;28;20018;-82
2022/04/08 02:44:55;;;;;;;;;;;;;;;6.39;49.49;96405.56;2599629;28;19936;-86
2022/04/08 02:46:11;;;;;;;;;;;;;;;6.38;49.54;96417.72;2600184;28;20338;-83
2022/04/08 02:47:26;;;;;;;;;;;;;;;6.30;49.96;96405.06;2601333;28;20383;-83
2022/04/08 02:48:42;;;;;;;;;;;;;;;6.32;49.70;96420.56;2601135;28;20399;-82
2022/04/08 02:49:57;;;;;;;;;;;;;;;6.38;49.21;96429.84;2601104;28;19921;-82
2022/04/08 02:51:12;;;;;;;;;;;;;;;6.31;49.94;96417.16;2602035;28;19921;-82
2022/04/08 02:52:28;;;;;;;;;;;;;;;6.26;49.74;96419.09;2600234;28;20372;-82
2022/04/08 02:53:43;;;;;;;;;;;;;;;6.22;49.89;96418.41;2602650;28;19925;-83
2022/04/08 02:54:59;;;;;;;;;;;;;;;6.21;50.03;96423.66;2601869;28;19921;-82
2022/04/08 02:56:14;;;;;;;;;;;;;;;6.24;49.63;96414.88;2601447;28;19956;-82
2022/04/08 02:57:30;;;;;;;;;;;;;;;6.21;49.98;96427.06;2600822;28;19921;-83
2022/04/08 02:58:48;;;;;;;;;;;;;;;6.12;50.16;96431.81;2600547;28;20276;-82
2022/04/08 03:00:04;;;;;;;;;;;;;;;6.11;50.84;96425.81;2602899;28;19928;-82
2022/04/08 03:01:19;;;;;;;;;;;;;;;6.10;50.77;96428.44;2600452;28;20274;-83
2022/04/08 03:02:35;;;;;;;;;;;;;;;6.11;50.68;96440.53;2600888;28;19928;-83
2022/04/08 03:03:50;;;;;;;;;;;;;;;6.04;50.72;96440.81;2601695;28;19925;-83
2022/04/08 03:05:06;;;;;;;;;;;;;;;6.08;50.60;96437.16;2601892;28;19921;-82
2022/04/08 03:06:22;;;;;;;;;;;;;;;6.02;50.87;96431.38;2599915;28;19952;-85
2022/04/08 03:07:37;;;;;;;;;;;;;;;6.00;51.00;96428.78;2601605;28;19924;-84
2022/04/08 03:08:52;;;;;;;;;;;;;;;6.06;50.25;96433.78;2600948;28;19925;-83
2022/04/08 03:10:08;;;;;;;;;;;;;;;6.08;50.19;96436.31;2600719;28;19928;-84
2022/04/08 03:11:24;;;;;;;;;;;;;;;6.11;50.05;96440.53;2601683;28;19925;-82
2022/04/08 03:12:39;;;;;;;;;;;;;;;6.18;49.74;96447.16;2601040;28;20518;-82
2022/04/08 03:13:59;;;;;;;;;;;;;;;6.13;50.46;96442.16;2601578;28;19925;-83
2022/04/08 03:15:14;;;;;;;;;;;;;;;6.21;49.52;96439.22;2602323;28;21084;-83
2022/04/08 03:16:30;;;;;;;;;;;;;;;6.15;49.94;96452.50;2600181;28;19925;-84
2022/04/08 03:17:46;;;;;;;;;;;;;;;6.13;50.26;96443.91;2599820;28;19979;-84
2022/04/08 03:19:02;;;;;;;;;;;;;;;6.08;50.28;96463.13;2599580;28;19925;-83
2022/04/08 03:20:17;;;;;;;;;;;;;;;6.07;50.30;96461.44;2601045;28;20429;-83
2022/04/08 03:21:33;;;;;;;;;;;;;;;6.11;50.04;96461.31;2606048;28;19921;-82
2022/04/08 03:22:49;;;;;;;;;;;;;;;6.06;50.52;96459.75;2606128;28;20011;-83
2022/04/08 03:24:04;;;;;;;;;;;;;;;6.16;49.80;96455.00;2604331;28;20449;-85
2022/04/08 03:25:20;;;;;;;;;;;;;;;6.14;49.73;96462.03;2604824;28;20409;-84
2022/04/08 03:26:35;;;;;;;;;;;;;;;6.11;50.93;96464.78;2603222;28;19924;-83
2022/04/08 03:27:54;;;;;;;;;;;;;;;6.04;50.76;96476.31;2603501;28;20359;-83
2022/04/08 03:29:10;;;;;;;;;;;;;;;6.08;50.44;96480.50;2603079;28;19928;-83
2022/04/08 03:30:27;;;;;;;;;;;;;;;6.14;49.85;96471.56;2604738;28;20443;-83
2022/04/08 03:31:42;;;;;;;;;;;;;;;6.07;50.58;96478.78;2605428;28;19993;-84
2022/04/08 03:32:58;;;;;;;;;;;;;;;5.91;51.02;96466.41;2604195;28;20371;-84
2022/04/08 03:34:13;;;;;;;;;;;;;;;5.93;51.28;96474.13;2605387;28;19929;-82
2022/04/08 03:35:29;;;;;;;;;;;;;;;5.87;51.52;96475.22;2602947;28;19925;-85
2022/04/08 03:36:45;;;;;;;;;;;;;;;6.02;50.50;96470.34;2603435;28;19990;-82
2022/04/08 03:38:01;;;;;;;;;;;;;;;6.02;50.58;96478.13;2604275;28;19932;-81
2022/04/08 03:39:17;;;;;;;;;;;;;;;6.03;50.52;96493.66;2603467;28;20454;-81
2022/04/08 03:40:35;;;;;;;;;;;;;;;6.04;50.63;96479.78;2605644;28;19970;-81
2022/04/08 03:41:51;;;;;;;;;;;;;;;5.97;50.74;96490.44;2603978;28;19921;-84
2022/04/08 03:43:06;;;;;;;;;;;;;;;5.90;51.48;96490.69;2606080;28;19982;-87
2022/04/08 03:44:22;;;;;;;;;;;;;;;5.83;50.72;96491.84;2604469;28;20371;-83
2022/04/08 03:45:37;;;;;;;;;;;;;;;5.82;51.08;96490.16;2606186;28;19980;-83
2022/04/08 03:46:53;;;;;;;;;;;;;;;5.86;51.20;96490.84;2606830;28;20003;-83
2022/04/08 03:48:11;;;;;;;;;;;;;;;5.93;50.56;96489.72;2603805;28;19940;-82
2022/04/08 03:49:27;;;;;;;;;;;;;;;5.93;50.46;96493.16;2602463;28;19929;-81
2022/04/08 03:50:42;;;;;;;;;;;;;;;5.86;51.17;96486.53;2605923;28;19966;-88
2022/04/08 03:51:58;;;;;;;;;;;;;;;5.87;51.00;96492.59;2604388;28;19925;-84
2022/04/08 03:53:13;;;;;;;;;;;;;;;5.90;51.21;96492.44;2603077;28;19929;-84
2022/04/08 03:54:29;;;;;;;;;;;;;;;5.80;51.74;96500.59;2605916;28;20425;-82
2022/04/08 03:55:44;;;;;;;;;;;;;;;5.77;51.88;96492.09;2604662;28;19924;-82
2022/04/08 03:57:00;;;;;;;;;;;;;;;5.83;51.26;96498.78;2603793;28;19925;-82
2022/04/08 03:58:16;;;;;;;;;;;;;;;5.79;51.78;96498.91;2606544;28;20291;-82
2022/04/08 03:59:31;;;;;;;;;;;;;;;5.74;51.54;96500.00;2604535;28;20004;-83
2022/04/08 04:00:46;;;;;;;;;;;;;;;5.75;51.48;96502.56;2606398;28;20770;-82
2022/04/08 04:02:02;;;;;;;;;;;;;;;5.72;51.39;96499.22;2605512;28;19979;-82
2022/04/08 04:03:17;;;;;;;;;;;;;;;5.69;51.94;96502.78;2604333;28;19924;-84
2022/04/08 04:04:34;;;;;;;;;;;;;;;5.62;52.17;96503.94;2605090;28;19931;-83
2022/04/08 04:05:50;;;;;;;;;;;;;;;5.64;52.18;96517.69;2603162;28;19924;-85
2022/04/08 04:07:06;;;;;;;;;;;;;;;5.74;51.71;96510.38;2606216;28;19979;-83
2022/04/08 04:08:21;;;;;;;;;;;;;;;5.82;51.15;96517.88;2603959;28;19925;-83
2022/04/08 04:09:37;;;;;;;;;;;;;;;5.82;50.92;96518.72;2605101;28;19997;-82
2022/04/08 04:10:52;;;;;;;;;;;;;;;5.75;51.70;96531.09;2605816;28;19925;-83
2022/04/08 04:12:09;;;;;;;;;;;;;;;5.83;51.86;96519.56;2604193;28;20421;-84
2022/04/08 04:13:25;;;;;;;;;;;;;;;5.85;51.22;96526.38;2602938;28;19925;-82
2022/04/08 04:14:41;;;;;;;;;;;;;;;5.85;51.52;96531.59;2603803;28;19943;-83
2022/04/08 04:15:56;;;;;;;;;;;;;;;5.87;51.21;96536.72;2604734;28;20644;-83
2022/04/08 04:17:12;;;;;;;;;;;;;;;5.80;51.58;96536.97;2604686;28;20931;-83
2022/04/08 04:18:27;;;;;;;;;;;;;;;5.90;51.05;96526.22;2604379;28;19929;-83
2022/04/08 04:19:43;;;;;;;;;;;;;;;5.90;51.56;96541.78;2605919;28;19925;-83
2022/04/08 04:20:58;;;;;;;;;;;;;;;5.88;51.40;96541.00;2603297;28;19979;-84
2022/04/08 04:22:13;;;;;;;;;;;;;;;5.84;51.70;96534.22;2603505;28;20363;-84
2022/04/08 04:23:29;;;;;;;;;;;;;;;5.85;51.45;96534.19;2605337;28;19960;-83
2022/04/08 04:24:47;;;;;;;;;;;;;;;5.86;51.96;96535.88;2604034;28;19925;-84
2022/04/08 04:26:03;;;;;;;;;;;;;;;5.86;51.88;96535.88;2597354;28;19925;-83
2022/04/08 04:27:19;;;;;;;;;;;;;;;5.85;51.71;96535.91;2600368;28;19980;-83
2022/04/08 04:28:34;;;;;;;;;;;;;;;5.84;51.68;96532.50;2604243;28;19925;-84
2022/04/08 04:29:50;;;;;;;;;;;;;;;5.87;51.89;96550.53;2604636;28;19925;-83
2022/04/08 04:31:06;;;;;;;;;;;;;;;5.91;51.40;96540.88;2613442;28;20368;-83
2022/04/08 04:32:21;;;;;;;;;;;;;;;5.93;51.64;96542.50;2606871;28;19924;-82
2022/04/08 04:33:37;;;;;;;;;;;;;;;5.86;51.79;96548.84;2603051;28;20128;-83
2022/04/08 04:34:52;;;;;;;;;;;;;;;5.83;52.05;96551.59;2601568;28;19924;-82
2022/04/08 04:36:08;;;;;;;;;;;;;;;5.83;51.93;96556.78;2602833;28;19924;-83
2022/04/08 04:37:23;;;;;;;;;;;;;;;5.78;52.43;96550.91;2601595;28;19948;-85
2022/04/08 04:38:38;;;;;;;;;;;;;;;5.80;52.40;96552.53;2604294;28;20315;-86
2022/04/08 04:39:54;;;;;;;;;;;;;;;5.78;52.60;96540.50;2601322;28;20019;-84
2022/04/08 04:41:09;;;;;;;;;;;;;;;5.74;52.88;96550.19;2602021;28;19925;-84
2022/04/08 04:42:27;;;;;;;;;;;;;;;5.78;52.34;96561.28;2601675;28;19928;-83
2022/04/08 04:43:43;;;;;;;;;;;;;;;5.74;52.73;96560.59;2601502;28;19924;-85
2022/04/08 04:44:58;;;;;;;;;;;;;;;5.78;52.70;96562.16;2602966;28;19924;-82
2022/04/08 04:46:14;;;;;;;;;;;;;;;5.82;52.71;96564.63;2603413;28;19936;-83
2022/04/08 04:47:29;;;;;;;;;;;;;;;5.87;52.21;96557.50;2603260;28;19978;-82
2022/04/08 04:48:45;;;;;;;;;;;;;;;5.87;52.51;96568.72;2602028;28;20280;-81
2022/04/08 04:50:00;;;;;;;;;;;;;;;5.80;52.70;96567.28;2600186;28;20043;-85
2022/04/08 04:51:16;;;;;;;;;;;;;;;5.80;52.81;96575.09;2601967;28;19932;-83
2022/04/08 04:52:32;;;;;;;;;;;;;;;5.85;52.60;96565.34;2601681;28;19928;-82
2022/04/08 04:53:47;;;;;;;;;;;;;;;5.85;52.45;96562.75;2601612;28;20482;-82
2022/04/08 04:55:04;;;;;;;;;;;;;;;5.80;52.61;96573.31;2601310;28;19925;-82
2022/04/08 04:56:19;;;;;;;;;;;;;;;5.77;52.88;96570.84;2601237;28;19924;-82
2022/04/08 04:57:35;;;;;;;;;;;;;;;5.78;53.03;96579.47;2603411;28;19936;-85
2022/04/08 04:58:50;;;;;;;;;;;;;;;5.77;53.04;96583.81;2604537;28;19932;-87
2022/04/08 05:00:09;;;;;;;;;;;;;;;5.79;53.33;96579.41;2601189;28;19932;-85
2022/04/08 05:01:24;;;;;;;;;;;;;;;5.79;53.30;96584.59;2603448;28;20035;-83
2022/04/08 05:02:40;;;;;;;;;;;;;;;5.82;53.07;96586.25;2601213;28;19925;-83
2022/04/08 05:03:55;;;;;;;;;;;;;;;5.79;53.38;96592.41;2602636;28;19931;-81
2022/04/08 05:05:11;;;;;;;;;;;;;;;5.76;53.14;96583.88;2603874;28;20364;-82
2022/04/08 05:06:27;;;;;;;;;;;;;;;5.76;53.29;96594.25;2604514;28;19924;-81
2022/04/08 05:07:42;;;;;;;;;;;;;;;5.84;53.35;96593.97;2603755;28;19925;-81
2022/04/08 05:08:57;;;;;;;;;;;;;;;5.81;53.72;96592.34;2602127;28;19924;-81
2022/04/08 05:10:13;;;;;;;;;;;;;;;5.81;53.57;96589.75;2600889;28;19963;-81
2022/04/08 05:11:28;;;;;;;;;;;;;;;5.80;53.49;96594.09;2601341;28;20330;-83
2022/04/08 05:12:44;;;;;;;;;;;;;;;5.82;53.52;96603.56;2601068;28;19933;-82
2022/04/08 05:14:00;;;;;;;;;;;;;;;5.79;53.73;96602.78;2603013;28;19979;-88
2022/04/08 05:15:15;;;;;;;;;;;;;;;5.78;53.86;96595.91;2601578;28;19931;-82
2022/04/08 05:16:31;;;;;;;;;;;;;;;5.88;53.34;96601.59;2602543;28;20359;-84
2022/04/08 05:17:46;;;;;;;;;;;;;;;5.88;53.63;96606.78;2602565;28;19931;-86
2022/04/08 05:19:02;;;;;;;;;;;;;;;5.93;53.17;96611.78;2603429;28;19975;-83
2022/04/08 05:20:18;;;;;;;;;;;;;;;5.99;52.92;96624.53;2602152;28;19925;-82
2022/04/08 05:21:34;;;;;;;;;;;;;;;6.01;53.30;96617.59;2601214;28;19929;-82
2022/04/08 05:22:49;;;;;;;;;;;;;;;6.01;53.67;96606.31;2601467;28;19940;-82
2022/04/08 05:24:05;;;;;;;;;;;;;;;6.01;53.98;96614.97;2604207;28;20521;-82
2022/04/08 05:25:20;;;;;;;;;;;;;;;6.00;53.66;96615.81;2603196;28;20370;-84
2022/04/08 05:26:36;;;;;;;;;;;;;;;6.10;53.31;96612.91;2601126;28;19924;-83
2022/04/08 05:27:53;;;;;;;;;;;;;;;6.11;53.77;96625.00;2602798;28;19924;-83
2022/04/08 05:29:08;;;;;;;;;;;;;;;6.16;53.18;96630.88;2601894;28;19925;-83
2022/04/08 05:30:24;;;;;;;;;;;;;;;6.12;53.78;96629.28;2601526;28;19956;-82
2022/04/08 05:31:39;;;;;;;;;;;;;;;6.13;53.37;96628.38;2602057;28;19925;-83
2022/04/08 05:32:55;;;;;;;;;;;;;;;6.14;52.96;96638.72;2601222;28;20008;-82
2022/04/08 05:34:10;;;;;;;;;;;;;;;6.12;53.69;96630.16;2601513;28;20379;-82
2022/04/08 05:35:26;;;;;;;;;;;;;;;6.11;53.53;96640.59;2602191;28;20151;-82
2022/04/08 05:36:41;;;;;;;;;;;;;;;6.16;53.15;96659.47;2602245;28;19932;-81
2022/04/08 05:37:57;;;;;;;;;;;;;;;6.14;53.78;96649.13;2600737;28;20437;-84
2022/04/08 05:39:12;;;;;;;;;;;;;;;6.15;53.25;96648.19;2603471;28;20359;-82
2022/04/08 05:40:28;;;;;;;;;;;;;;;6.14;53.28;96653.44;2602211;28;19936;-84
2022/04/08 05:41:43;;;;;;;;;;;;;;;6.11;53.50;96651.84;2600769;28;19929;-84
2022/04/08 05:42:58;;;;;;;;;;;;;;;6.10;54.10;96664.88;2602179;28;19935;-79
2022/04/08 05:44:14;;;;;;;;;;;;;;;6.11;53.63;96669.16;2601018;28;19933;-79
2022/04/08 05:45:30;;;;;;;;;;;;;;;6.10;53.54;96654.47;2603801;28;19920;-79
2022/04/08 05:46:45;;;;;;;;;;;;;;;6.10;53.67;96660.53;2603846;28;20035;-79
2022/04/08 05:48:02;;;;;;;;;;;;;;;6.09;53.60;96664.03;2603453;28;20375;-78
2022/04/08 05:49:17;;;;;;;;;;;;;;;6.11;53.84;96653.56;2600863;28;19993;-81
2022/04/08 05:50:33;;;;;;;;;;;;;;;6.15;53.75;96673.34;2602165;28;19983;-81
2022/04/08 05:51:49;;;;;;;;;;;;;;;6.13;54.12;96682.94;2602332;28;19925;-81
2022/04/08 05:53:05;;;;;;;;;;;;;;;6.13;53.96;96677.75;2600634;28;19968;-81
2022/04/08 05:54:20;;;;;;;;;;;;;;;6.15;53.89;96675.97;2600482;28;19960;-81
2022/04/08 05:55:36;;;;;;;;;;;;;;;6.18;53.58;96681.03;2600876;28;20295;-80
2022/04/08 05:56:51;;;;;;;;;;;;;;;6.23;53.61;96673.88;2604209;28;19966;-80
2022/04/08 05:58:06;;;;;;;;;;;;;;;6.27;53.61;96685.84;2603321;28;19972;-80
2022/04/08 05:59:22;;;;;;;;;;;;;;;6.29;53.43;96685.78;2601590;28;19928;-80
2022/04/08 06:00:37;;;;;;;;;;;;;;;6.33;53.48;96688.22;2602336;28;19924;-80
2022/04/08 06:01:53;;;;;;;;;;;;;;;6.36;53.34;96685.50;2604278;28;19925;-80
2022/04/08 06:03:08;;;;;;;;;;;;;;;6.40;53.42;96688.81;2611602;28;20022;-81
2022/04/08 06:04:23;;;;;;;;;;;;;;;6.46;53.65;96705.94;2608548;28;19928;-81
2022/04/08 06:05:39;;;;;;;;;;;;;;;6.48;53.22;96699.75;2600693;28;20279;-80
2022/04/08 06:06:55;;;;;;;;;;;;;;;6.50;53.30;96699.69;2600490;28;20283;-80
2022/04/08 06:08:10;;;;;;;;;;;;;;;6.53;53.41;96701.34;2602935;28;19935;-80
2022/04/08 06:09:26;;;;;;;;;;;;;;;6.57;52.62;96705.50;2601531;28;19925;-79
2022/04/08 06:10:41;;;;;;;;;;;;;;;6.60;52.98;96708.84;2604062;28;19924;-81
2022/04/08 06:11:56;;;;;;;;;;;;;;;6.64;52.41;96713.00;2602565;28;19932;-80
2022/04/08 06:13:12;;;;;;;;;;;;;;;6.65;52.11;96708.66;2603022;28;20390;-79
2022/04/08 06:14:27;;;;;;;;;;;;;;;6.68;52.13;96713.72;2603842;28;19936;-80
2022/04/08 06:15:43;;;;;;;;;;;;;;;6.71;52.50;96725.78;2602876;28;20736;-80
2022/04/08 06:16:58;;;;;;;;;;;;;;;6.74;52.28;96717.84;2600847;28;19972;-80
2022/04/08 06:18:15;;;;;;;;;;;;;;;6.83;53.12;96725.25;2602770;28;19935;-79
2022/04/08 06:19:31;;;;;;;;;;;;;;;6.88;52.14;96725.94;2603309;28;19925;-80
2022/04/08 06:20:46;;;;;;;;;;;;;;;6.95;52.61;96731.72;2600462;28;20414;-80
2022/04/08 06:22:02;;;;;;;;;;;;;;;6.97;52.15;96731.63;2601286;28;19925;-81
2022/04/08 06:23:17;;;;;;;;;;;;;;;7.04;52.21;96733.09;2603113;28;20287;-79
2022/04/08 06:24:32;;;;;;;;;;;;;;;7.10;52.68;96732.81;2602080;28;19925;-79
2022/04/08 06:25:48;;;;;;;;;;;;;;;7.09;52.18;96736.34;2602502;28;20292;-81
2022/04/08 06:27:03;;;;;;;;;;;;;;;7.06;51.93;96726.06;2602326;28;19951;-81
2022/04/08 06:28:19;;;;;;;;;;;;;;;6.99;52.16;96733.28;2601809;28;20498;-80
2022/04/08 06:29:34;;;;;;;;;;;;;;;6.93;52.16;96742.19;2600823;28;20463;-81
2022/04/08 06:30:50;;;;;;;;;;;;;;;6.88;52.00;96736.34;2603402;28;19928;-81
2022/04/08 06:32:06;;;;;;;;;;;;;;;6.89;51.85;96743.22;2602335;28;19925;-80
2022/04/08 06:33:22;;;;;;;;;;;;;;;6.89;52.30;96734.56;2602014;28;19930;-80
2022/04/08 06:34:38;;;;;;;;;;;;;;;6.88;53.06;96738.94;2602449;28;20857;-81
2022/04/08 06:35:53;;;;;;;;;;;;;;;6.93;52.17;96741.34;2601548;28;19932;-81
2022/04/08 06:37:09;;;;;;;;;;;;;;;6.97;52.49;96734.25;2602059;28;19932;-80
2022/04/08 06:38:24;;;;;;;;;;;;;;;6.96;52.15;96740.34;2604032;28;19934;-80
2022/04/08 06:39:39;;;;;;;;;;;;;;;6.99;52.01;96740.25;2601315;28;19925;-81